Prachin Buri, Thailand

11:46 PM ICT on September 02, 2014 (GMT +0700)
Bangkok International | Change Station
CLOSE
Current Station
Airport
Location: Bangkok (Don Mueang),
Elevation: 13 ft
Nearby Weather Stations

Elev 13 ft 13.92 °N, 100.61 °E | Updated 16 minutes ago

Light Rain
Light Rain
79 °F
Feels Like 79 °F
N
4
Wind Variable Wind from South

Today
High -- | Low -- °F
--% Chance of Precip.
Yesterday
High -- | Low -- °F
Precip. -- in
6:02 AM 6:25 PM
First Quarter, 53% visible
Pressure 29.83 in
Visibility 5.6 miles
Clouds Scattered Clouds 2000 ft
Scattered Clouds 3500 ft
Mostly Cloudy 12000 ft
Dew Point 75 °F
Humidity 89%
Rainfall 0.00 in
Snow Depth Not available.
UV 0 out of 12
Pollen Not available.
Air Quality Not available.
Flu Activity Not available.
METAR VTBD 021630Z 19003KT 9000 -RA SCT020 SCT035 BKN120 26/24 Q1010 NOSIG

More Conditions Fewer Conditions

Pressure 29.83 in
Visibility 5.6 miles
Clouds Scattered Clouds 2000 ft
Scattered Clouds 3500 ft
Mostly Cloudy 12000 ft
Dew Point 75 °F
Humidity 89%
Rainfall 0.00 in
Snow Depth Not available.
UV 0 out of 12
Pollen Not available.
Air Quality Not available.
Flu Activity Not available.
METAR VTBD 021630Z 19003KT 9000 -RA SCT020 SCT035 BKN120 26/24 Q1010 NOSIG

More Conditions Fewer Conditions

10-Day Weather Forecast

Almanac

Astronomy

Sep. 02, 2014 Rise Set
Actual Time 6:02 AM ICT 6:25 PM ICT
Civil Twilight 5:41 AM ICT 6:47 PM ICT
Nautical Twilight 5:16 AM ICT 7:12 PM ICT
Astronomical Twilight 4:50 AM ICT 7:37 PM ICT
Moon 12:10 PM ICT 11:57 PM ICT
Length of Visible Light 13h 05m
Length of Day
12h 22m
Tomorrow will be 0m 45s shorter.
First Quarter, 53% of the Moon is Illuminated
Today
First Quarter
Sep 8
Full
Sep 15
Last Quarter
Sep 24
New
Oct 1
First Quarter

Today's Extremes

Country Highs Country Lows

Community

WunderPhotos

Upload Photos

1,749,716 photos uploaded!

WunderBlogs® & News

Nearby

Snow Depth

Not available.

Earthquake Activity

City Distance Mag. Time & Date
No recent earthquake activity has been reported nearby.
Minimum magnitude displayed is 2.5.

Coastal Water Temperatures

Place Temperature
No Stations Reporting

Nearby Weather Stations